Time;durP1;ratioP1;P1;durP2;ratioP2;P2;SDS_P1;SDS_P2;PMS_P1;PMS_P2;Temp;Humidity;BMP_temperature;BMP_pressure;BME280_temperature;BME280_humidity;BME280_pressure;Samples;Min_cycle;Max_cycle;Signal;HPM_P1;HPM_P2
2022/06/15 00:01:49;;;;;;;1.05;0.70;;;;;;;20.06;41.13;101703.28;5028914;28;20045;-76
2022/06/15 00:04:17;;;;;;;2.45;1.10;;;;;;;20.09;40.67;101707.69;5029554;28;20053;-76
2022/06/15 00:06:46;;;;;;;1.60;0.98;;;;;;;20.03;40.34;101705.03;5037299;28;20050;-76
2022/06/15 00:09:14;;;;;;;1.60;1.00;;;;;;;19.89;40.33;101704.94;5024572;28;20499;-77
2022/06/15 00:11:45;;;;;;;1.85;1.00;;;;;;;19.94;41.53;101703.22;5003114;28;20050;-78
2022/06/15 00:14:16;;;;;;;1.27;0.90;;;;;;;19.99;41.59;101700.63;5008999;28;20058;-75
2022/06/15 00:16:45;;;;;;;1.83;0.95;;;;;;;19.99;43.04;101698.00;5005893;28;20100;-78
2022/06/15 00:19:15;;;;;;;2.13;0.95;;;;;;;19.98;43.75;101693.63;4998464;28;20136;-78
2022/06/15 00:21:44;;;;;;;2.50;0.93;;;;;;;19.96;40.52;101684.84;5000364;28;20060;-78
2022/06/15 00:24:13;;;;;;;2.08;1.10;;;;;;;19.88;41.13;101683.06;4999206;28;20194;-77
2022/06/15 00:26:43;;;;;;;2.15;1.25;;;;;;;19.82;40.03;101690.03;5000598;28;20511;-77
2022/06/15 00:29:12;;;;;;;2.45;1.00;;;;;;;19.84;42.66;101683.91;5001161;28;20072;-76
2022/06/15 00:31:41;;;;;;;1.90;0.93;;;;;;;19.83;47.10;101684.75;4996700;28;20105;-76
2022/06/15 00:34:10;;;;;;;2.13;1.00;;;;;;;19.79;42.06;101683.00;4999564;28;20136;-75
2022/06/15 00:36:40;;;;;;;1.88;0.90;;;;;;;19.80;41.30;101673.38;5005672;28;20049;-75
2022/06/15 00:39:09;;;;;;;2.95;1.00;;;;;;;19.83;40.89;101678.63;5010142;28;20101;-76
2022/06/15 00:41:39;;;;;;;1.73;0.85;;;;;;;19.83;40.78;101684.75;5012797;28;20046;-75
2022/06/15 00:44:45;;;;;;;1.50;0.90;;;;;;;19.83;43.74;101678.63;5008871;28;20046;-76
2022/06/15 00:47:20;;;;;;;2.15;0.93;;;;;;;19.82;43.14;101677.75;4990704;28;20124;-76
2022/06/15 00:49:56;;;;;;;2.25;1.27;;;;;;;19.85;44.66;101671.66;5007604;28;20056;-76
2022/06/15 00:52:32;;;;;;;1.40;0.82;;;;;;;19.85;46.17;101669.03;4999252;28;20050;-77
2022/06/15 00:55:03;;;;;;;1.83;1.08;;;;;;;19.81;44.57;101669.88;4994980;28;20057;-78
2022/06/15 00:57:32;;;;;;;2.30;1.10;;;;;;;19.82;45.08;101662.00;4997658;28;20113;-79
2022/06/15 01:00:08;;;;;;;1.42;0.90;;;;;;;19.76;43.13;101658.47;5002915;28;20432;-78
2022/06/15 01:02:39;;;;;;;2.50;1.40;;;;;;;19.75;41.65;101649.72;4996845;28;20054;-78
2022/06/15 01:05:13;;;;;;;2.17;1.10;;;;;;;19.78;42.73;101644.47;5000837;28;20429;-77
2022/06/15 01:08:15;;;;;;;1.60;1.20;;;;;;;19.84;46.49;101644.50;4998049;28;20049;-78
2022/06/15 01:10:58;;;;;;;;;;;;;;;19.87;42.58;101649.78;5004458;28;20053;-75
2022/06/15 01:13:50;;;;;;;1.85;1.10;;;;;;;19.90;46.03;101648.91;5020793;28;20003;-76
2022/06/15 01:16:34;;;;;;;1.58;1.20;;;;;;;19.91;48.52;101642.78;5020921;28;20045;-76
2022/06/15 01:19:16;;;;;;;1.70;0.90;;;;;;;19.91;49.26;101641.94;5026339;28;20096;-76
2022/06/15 01:21:52;;;;;;;3.22;1.20;;;;;;;19.88;49.05;101643.66;5019367;28;20046;-76
2022/06/15 01:24:57;;;;;;;2.15;1.00;;;;;;;19.82;47.46;101629.63;5021787;28;20055;-75
2022/06/15 01:27:57;;;;;;;2.40;0.93;;;;;;;19.80;50.40;101632.22;5017339;28;20096;-77
2022/06/15 01:30:38;;;;;;;2.00;1.23;;;;;;;19.74;48.38;101642.69;5024386;28;20104;-75
2022/06/15 01:33:27;;;;;;;1.77;1.17;;;;;;;19.69;51.42;101628.66;5020071;28;20061;-75
2022/06/15 01:36:08;;;;;;;1.45;1.00;;;;;;;19.63;49.55;101623.34;5027104;28;20053;-76
2022/06/15 01:38:48;;;;;;;2.63;1.20;;;;;;;19.56;46.66;101621.53;5019659;28;20490;-76
2022/06/15 01:41:23;;;;;;;2.13;1.10;;;;;;;19.53;46.88;101616.28;5018286;28;20096;-76
2022/06/15 01:43:59;;;;;;;2.17;1.38;;;;;;;19.54;46.36;101612.78;5019259;28;20056;-77
2022/06/15 01:46:30;;;;;;;2.00;1.20;;;;;;;19.55;46.22;101614.56;5021866;28;20041;-76
2022/06/15 01:49:00;;;;;;;4.15;1.20;;;;;;;19.54;46.40;101618.03;5009945;28;20458;-76
2022/06/15 01:51:31;;;;;;;1.60;1.10;;;;;;;19.53;47.80;101619.78;5021559;28;20049;-76
2022/06/15 01:54:05;;;;;;;2.83;1.27;;;;;;;19.52;48.78;101628.53;5019655;28;20644;-76
2022/06/15 01:56:38;;;;;;;2.40;1.40;;;;;;;19.49;47.71;101617.13;5021058;28;20498;-76
2022/06/15 01:59:12;;;;;;;3.22;1.50;;;;;;;19.44;49.87;101617.09;5019349;28;20506;-76
2022/06/15 02:01:50;;;;;;;2.00;1.50;;;;;;;19.42;46.92;101619.72;5021535;28;20115;-76
2022/06/15 02:04:28;;;;;;;2.47;1.58;;;;;;;19.38;47.62;101617.94;5017383;28;20107;-76
2022/06/15 02:09:39;;;;;;;4.95;1.35;;;;;;;19.34;52.11;101623.16;5040055;23;20050;-77
2022/06/15 02:12:10;;;;;;;3.03;1.30;;;;;;;19.30;51.24;101624.00;4935393;28;20059;-77
2022/06/15 02:14:42;;;;;;;3.03;1.60;;;;;;;19.24;48.58;101614.31;4945591;28;20046;-77
2022/06/15 02:17:17;;;;;;;3.67;1.48;;;;;;;19.23;48.72;101617.81;4958325;28;20046;-78
2022/06/15 02:19:49;;;;;;;2.35;1.23;;;;;;;19.20;51.40;101628.31;4952629;28;20051;-77
2022/06/15 02:22:22;;;;;;;2.45;1.35;;;;;;;19.17;53.09;101628.25;4950889;28;20286;-77
2022/06/15 02:24:55;;;;;;;2.47;1.38;;;;;;;19.12;50.88;101619.47;4953250;28;20076;-77
2022/06/15 02:27:25;;;;;;;;;;;;;;;19.07;48.81;101613.34;4966913;28;20054;-78
2022/06/15 02:29:59;;;;;;;4.50;1.60;;;;;;;19.04;51.98;101615.06;4963587;28;19922;-77
2022/06/15 02:32:29;;;;;;;3.42;1.92;;;;;;;19.01;51.09;101617.66;4940112;28;20051;-77
2022/06/15 02:34:58;;;;;;;2.92;1.45;;;;;;;18.97;49.59;101621.13;4950549;28;20061;-77
2022/06/15 02:37:26;;;;;;;2.90;1.48;;;;;;;18.92;52.73;101614.97;4953591;28;20106;-77
2022/06/15 02:39:55;;;;;;;3.13;1.65;;;;;;;18.88;52.45;101614.94;4947852;28;20058;-76
2022/06/15 02:42:28;;;;;;;2.60;1.85;;;;;;;18.83;54.77;101612.25;4941419;28;20047;-77
2022/06/15 02:45:00;;;;;;;3.25;1.67;;;;;;;18.78;52.58;101606.06;4963852;28;20441;-77
2022/06/15 02:47:34;;;;;;;5.22;1.60;;;;;;;18.74;53.69;101606.91;4939723;28;20485;-77
2022/06/15 02:50:03;;;;;;;2.65;1.90;;;;;;;18.69;56.14;101614.72;4934369;29;20060;-77
2022/06/15 02:52:36;;;;;;;3.10;1.95;;;;;;;18.61;51.13;101606.75;4951791;28;20047;-77
2022/06/15 02:55:05;;;;;;;5.55;1.80;;;;;;;18.56;54.21;101608.47;4962022;28;20095;-77
2022/06/15 02:57:44;;;;;;;6.38;2.15;;;;;;;18.52;52.71;101611.03;4961619;28;20054;-77
2022/06/15 03:00:17;;;;;;;3.22;2.00;;;;;;;18.45;49.35;101599.59;4954172;28;20054;-77
2022/06/15 03:02:47;;;;;;;5.05;2.20;;;;;;;18.41;50.99;101601.31;4970726;28;20051;-77
2022/06/15 03:05:16;;;;;;;3.08;2.10;;;;;;;18.37;50.20;101601.25;4971098;28;20054;-76
2022/06/15 03:07:44;;;;;;;4.25;2.42;;;;;;;18.33;51.27;101594.25;4969052;28;20044;-77
2022/06/15 03:10:13;;;;;;;3.08;1.90;;;;;;;18.31;51.60;101595.97;4970189;28;20054;-77
2022/06/15 03:12:41;;;;;;;3.28;1.70;;;;;;;18.26;50.40;101589.81;4971406;28;20047;-78
2022/06/15 03:15:12;;;;;;;3.95;2.10;;;;;;;18.19;48.70;101589.72;4972691;28;20452;-78
2022/06/15 03:17:41;;;;;;;3.58;2.10;;;;;;;18.14;49.63;101588.81;4970513;28;20046;-78
2022/06/15 03:20:13;;;;;;;3.00;2.20;;;;;;;18.10;50.73;101586.13;4955759;28;20512;-78
2022/06/15 03:22:42;;;;;;;5.88;2.75;;;;;;;18.06;50.34;101581.72;4965391;28;20047;-78
2022/06/15 03:25:11;;;;;;;2.80;1.70;;;;;;;17.98;49.95;101581.59;4967769;28;20511;-79
2022/06/15 03:27:40;;;;;;;4.00;2.00;;;;;;;17.93;50.38;101580.66;4956383;28;20066;-76
2022/06/15 03:30:10;;;;;;;3.72;1.70;;;;;;;17.86;50.46;101582.31;4959908;28;20077;-76
2022/06/15 03:32:38;;;;;;;5.45;2.05;;;;;;;17.80;50.64;101577.88;4963850;28;20473;-83
2022/06/15 03:35:08;;;;;;;3.55;1.80;;;;;;;17.74;51.78;101577.78;4971535;28;20049;-82
2022/06/15 03:37:39;;;;;;;5.68;1.90;;;;;;;17.66;50.82;101574.22;4956315;28;20047;-83
2022/06/15 03:40:09;;;;;;;4.03;1.90;;;;;;;17.58;50.38;101574.09;4972114;28;20082;-77
2022/06/15 03:42:40;;;;;;;4.95;1.70;;;;;;;17.51;52.21;101572.25;4963230;28;20042;-78
2022/06/15 03:45:10;;;;;;;3.25;1.70;;;;;;;17.44;50.80;101569.53;4966630;28;20051;-77
2022/06/15 03:47:38;;;;;;;3.95;1.70;;;;;;;17.34;49.86;101561.56;4959050;28;20070;-76
2022/06/15 03:50:07;;;;;;;3.17;2.35;;;;;;;17.26;51.64;101563.16;4966973;28;20110;-76
2022/06/15 03:52:38;;;;;;;3.83;1.90;;;;;;;17.20;51.30;101563.06;4965947;28;20560;-77
2022/06/15 03:55:07;;;;;;;5.10;1.80;;;;;;;17.16;51.71;101567.38;4967633;28;20047;-78
2022/06/15 03:57:35;;;;;;;6.18;1.67;;;;;;;17.10;51.98;101561.19;4962630;28;20043;-79
2022/06/15 04:00:05;;;;;;;3.38;2.10;;;;;;;17.04;52.76;101563.69;4966925;28;20050;-77
2022/06/15 04:02:34;;;;;;;3.83;2.05;;;;;;;16.98;52.59;101563.59;4967023;28;20042;-75
2022/06/15 04:05:02;;;;;;;4.60;2.25;;;;;;;16.90;53.07;101563.47;4966989;28;20141;-76
2022/06/15 04:10:17;;;;;;;3.35;1.88;;;;;;;16.78;53.98;101577.19;4967789;28;20073;-77
2022/06/15 04:12:46;;;;;;;7.25;1.67;;;;;;;16.72;54.12;101575.34;4965786;28;20047;-78
2022/06/15 04:15:16;;;;;;;6.57;2.00;;;;;;;16.66;54.57;101569.13;4971347;28;20042;-80
2022/06/15 04:17:45;;;;;;;5.18;1.73;;;;;;;16.59;54.54;101575.13;4966900;28;20075;-80
2022/06/15 04:20:36;;;;;;;4.22;2.13;;;;;;;16.53;55.77;101574.13;4971475;28;20133;-80
2022/06/15 04:23:07;;;;;;;3.22;1.75;;;;;;;16.47;55.33;101576.66;4965818;28;20047;-79
2022/06/15 04:25:40;;;;;;;6.85;1.80;;;;;;;16.40;55.47;101572.16;4964943;28;20051;-77
2022/06/15 04:28:10;;;;;;;3.67;2.15;;;;;;;16.35;55.74;101571.19;4970589;28;20054;-78
2022/06/15 04:30:39;;;;;;;3.97;1.88;;;;;;;16.28;56.37;101579.75;4970654;28;20047;-78
2022/06/15 04:33:09;;;;;;;2.83;1.55;;;;;;;16.24;56.16;101577.91;4968688;28;20047;-77
2022/06/15 04:35:38;;;;;;;3.35;1.80;;;;;;;16.15;54.75;101576.03;4965383;28;20046;-77
2022/06/15 04:38:07;;;;;;;2.13;1.58;;;;;;;16.05;56.50;101579.28;4967022;28;20046;-79
2022/06/15 04:40:39;;;;;;;5.30;1.92;;;;;;;15.99;57.69;101576.56;4964849;28;20047;-85
2022/06/15 04:43:09;;;;;;;2.80;1.50;;;;;;;15.93;57.10;101573.84;4966180;28;20507;-85
2022/06/15 04:45:37;;;;;;;3.75;2.13;;;;;;;15.86;57.57;101578.03;4963584;28;20054;-84
2022/06/15 04:48:07;;;;;;;2.97;1.85;;;;;;;15.81;56.47;101579.69;4971737;28;20051;-86
2022/06/15 04:50:35;;;;;;;4.00;1.80;;;;;;;15.76;57.12;101583.91;4967453;28;20111;-86
2022/06/15 04:53:05;;;;;;;3.75;1.85;;;;;;;15.70;58.22;101579.41;4957445;28;20450;-85
2022/06/15 04:55:34;;;;;;;4.13;1.80;;;;;;;15.66;58.32;101574.97;4970239;28;20039;-86
2022/06/15 04:58:05;;;;;;;5.40;1.95;;;;;;;15.61;57.92;101567.03;4964335;28;20047;-86
2022/06/15 05:00:39;;;;;;;4.13;1.77;;;;;;;15.56;57.35;101571.28;4968932;28;20051;-84
2022/06/15 05:03:07;;;;;;;4.82;1.63;;;;;;;15.51;57.83;101572.94;4970615;28;20051;-84
2022/06/15 05:05:36;;;;;;;4.30;1.52;;;;;;;15.45;58.39;101564.94;4968868;28;20043;-85
2022/06/15 05:08:05;;;;;;;3.58;1.92;;;;;;;15.40;58.73;101567.47;4970778;28;20101;-85
2022/06/15 05:10:33;;;;;;;5.40;1.83;;;;;;;15.33;58.44;101564.69;4968941;28;20051;-87
2022/06/15 05:13:02;;;;;;;2.78;1.48;;;;;;;15.27;57.95;101561.06;4970622;28;20050;-85
2022/06/15 05:15:32;;;;;;;3.45;1.55;;;;;;;15.24;58.70;101563.63;4969649;28;20852;-86
2022/06/15 05:18:04;;;;;;;10.00;2.05;;;;;;;15.19;58.96;101562.63;4958188;28;20190;-85
2022/06/15 05:20:33;;;;;;;5.03;1.83;;;;;;;15.14;59.50;101564.25;4971739;28;20488;-84
2022/06/15 05:23:02;;;;;;;2.40;1.50;;;;;;;15.10;60.15;101562.41;4968980;28;20078;-84
2022/06/15 05:25:30;;;;;;;3.65;1.40;;;;;;;15.06;59.56;101563.19;4960863;28;20053;-85
2022/06/15 05:27:59;;;;;;;3.22;1.30;;;;;;;15.01;59.66;101556.97;4964662;28;20046;-83
2022/06/15 05:30:27;;;;;;;4.57;1.55;;;;;;;14.97;59.83;101558.63;4967123;28;20059;-85
2022/06/15 05:32:58;;;;;;;2.10;1.27;;;;;;;14.94;59.66;101555.06;4969746;28;20047;-81
2022/06/15 05:35:26;;;;;;;2.60;1.27;;;;;;;14.89;60.07;101557.56;4967058;28;20109;-82
2022/06/15 05:37:55;;;;;;;2.15;1.25;;;;;;;14.84;58.52;101556.56;4966445;28;20042;-83
2022/06/15 05:40:23;;;;;;;3.78;1.55;;;;;;;14.80;60.68;101553.00;4966931;28;20134;-83
2022/06/15 05:42:52;;;;;;;6.00;1.25;;;;;;;14.77;61.59;101546.81;4970311;28;20042;-81
2022/06/15 05:45:21;;;;;;;4.40;1.30;;;;;;;14.74;61.90;101547.63;4964761;28;20059;-81
2022/06/15 05:47:49;;;;;;;4.07;1.20;;;;;;;14.72;62.90;101548.44;4961877;28;20506;-83
2022/06/15 05:50:19;;;;;;;2.40;1.25;;;;;;;14.66;62.14;101542.25;4973690;28;20046;-81
2022/06/15 05:52:48;;;;;;;3.45;1.33;;;;;;;14.63;62.86;101546.47;4959153;28;20294;-83
2022/06/15 05:55:16;;;;;;;3.15;1.63;;;;;;;14.59;61.53;101548.16;4979099;28;20611;-82
2022/06/15 05:57:46;;;;;;;2.22;1.13;;;;;;;14.56;62.88;101541.97;4972257;28;20047;-84
2022/06/15 06:00:18;;;;;;;3.70;1.42;;;;;;;14.52;63.47;101537.47;4966242;28;20046;-84
2022/06/15 06:02:46;;;;;;;2.88;1.00;;;;;;;14.46;63.38;101533.88;4968636;28;20055;-83
2022/06/15 06:05:15;;;;;;;4.18;1.50;;;;;;;14.45;63.76;101539.94;4968243;28;20054;-83
2022/06/15 06:07:45;;;;;;;2.22;1.15;;;;;;;14.44;62.37;101534.69;4970778;28;20050;-82
2022/06/15 06:10:13;;;;;;;2.92;1.73;;;;;;;14.37;62.66;101531.03;4969718;28;20654;-83
2022/06/15 06:12:42;;;;;;;6.15;1.25;;;;;;;14.37;63.09;101532.75;4979209;28;20524;-83
2022/06/15 06:15:11;;;;;;;2.90;1.40;;;;;;;14.33;63.34;101526.56;4981132;28;20062;-83
2022/06/15 06:17:39;;;;;;;3.38;1.65;;;;;;;14.31;63.64;101525.66;4962905;28;20051;-83
2022/06/15 06:20:09;;;;;;;2.90;1.23;;;;;;;14.30;63.02;101526.50;4969382;28;20054;-83
2022/06/15 06:22:38;;;;;;;3.17;1.10;;;;;;;14.29;63.57;101531.66;4969924;28;20062;-83
2022/06/15 06:25:10;;;;;;;2.65;0.90;;;;;;;14.25;63.22;101522.91;4964527;28;20043;-82
2022/06/15 06:27:38;;;;;;;5.55;1.13;;;;;;;14.22;63.31;101515.91;4963951;28;20051;-84
2022/06/15 06:30:08;;;;;;;2.83;0.90;;;;;;;14.20;63.39;101516.69;4969696;28;20121;-83
2022/06/15 06:32:36;;;;;;;4.57;1.25;;;;;;;14.18;63.58;101515.78;4969303;28;20062;-83
2022/06/15 06:35:05;;;;;;;1.85;1.08;;;;;;;14.14;65.41;101512.19;4967617;28;20046;-84
2022/06/15 06:37:37;;;;;;;2.85;1.00;;;;;;;14.12;64.59;101500.00;4968472;28;20047;-84
2022/06/15 06:40:08;;;;;;;3.92;1.40;;;;;;;14.10;64.39;101489.53;4968353;28;20053;-83
2022/06/15 06:42:37;;;;;;;3.77;1.57;;;;;;;14.06;64.40;101481.59;4969290;28;20050;-83
2022/06/15 06:45:06;;;;;;;1.70;1.23;;;;;;;14.04;64.54;101481.56;4964452;28;20054;-83
2022/06/15 06:47:34;;;;;;;2.67;1.10;;;;;;;13.98;65.33;101484.88;4963292;28;20050;-83
2022/06/15 06:50:03;;;;;;;6.05;0.90;;;;;;;13.96;65.35;101491.75;4964710;28;20043;-84
2022/06/15 06:52:31;;;;;;;2.30;1.05;;;;;;;13.93;65.41;101489.09;4968418;28;20050;-83
2022/06/15 06:55:00;;;;;;;3.05;1.00;;;;;;;13.90;63.89;101480.31;4968448;28;20067;-84
2022/06/15 06:57:30;;;;;;;1.20;0.65;;;;;;;13.87;65.04;101475.91;4968037;28;20123;-84
2022/06/15 06:59:59;;;;;;;1.77;0.80;;;;;;;13.86;66.07;101474.16;4963526;28;20112;-84
2022/06/15 07:02:27;;;;;;;2.05;0.73;;;;;;;13.83;67.20;101461.94;4957781;28;20106;-84
2022/06/15 07:04:55;;;;;;;1.38;0.70;;;;;;;13.83;67.07;101468.84;4968133;28;20086;-84
2022/06/15 07:07:24;;;;;;;5.07;1.20;;;;;;;13.82;66.04;101467.09;4968514;28;20042;-84
2022/06/15 07:09:52;;;;;;;1.48;0.55;;;;;;;13.80;66.33;101468.78;4960803;28;20050;-83
2022/06/15 07:12:21;;;;;;;2.35;1.23;;;;;;;13.78;66.77;101468.72;4962062;28;20043;-84
2022/06/15 07:14:52;;;;;;;2.70;0.60;;;;;;;13.76;67.54;101464.31;4969783;28;20054;-83
2022/06/15 07:17:20;;;;;;;2.03;1.17;;;;;;;13.72;66.57;101467.66;4966870;28;20125;-83
2022/06/15 07:19:50;;;;;;;2.15;0.95;;;;;;;13.68;66.02;101468.44;4968889;28;20066;-83
2022/06/15 07:22:19;;;;;;;3.40;0.77;;;;;;;13.64;66.05;101462.25;4967746;28;20085;-83
2022/06/15 07:24:47;;;;;;;3.03;1.10;;;;;;;13.62;66.81;101469.13;4970513;28;20051;-84
2022/06/15 07:27:16;;;;;;;4.28;1.48;;;;;;;13.57;67.61;101471.59;4982024;28;20109;-82
2022/06/15 07:29:46;;;;;;;3.85;0.80;;;;;;;13.50;67.45;101458.41;4969601;28;20067;-84
2022/06/15 07:32:18;;;;;;;1.60;0.80;;;;;;;13.43;70.03;101457.31;4966248;28;20059;-84
2022/06/15 07:34:46;;;;;;;1.90;1.08;;;;;;;13.38;71.97;101448.53;4964508;28;20074;-84
2022/06/15 07:37:15;;;;;;;1.50;0.73;;;;;;;13.35;72.34;101443.22;4958672;28;20055;-84
2022/06/15 07:39:43;;;;;;;1.10;0.90;;;;;;;13.31;72.52;101451.75;4969128;28;20042;-83
2022/06/15 07:42:13;;;;;;;6.05;0.90;;;;;;;13.26;72.23;101454.19;4970297;28;20110;-83
2022/06/15 07:44:41;;;;;;;4.53;1.25;;;;;;;13.21;71.00;101460.97;4970741;28;20116;-83
2022/06/15 07:49:58;;;;;;;4.50;0.70;;;;;;;13.10;69.98;101458.06;4967063;28;20122;-83
2022/06/15 07:52:30;;;;;;;1.25;0.80;;;;;;;13.06;70.82;101450.13;4967970;28;20469;-83
2022/06/15 07:55:07;;;;;;;0.77;0.70;;;;;;;13.06;69.68;101448.41;4968803;28;20058;-83
2022/06/15 07:57:36;;;;;;;3.47;0.63;;;;;;;13.05;69.35;101454.44;4968141;28;20051;-83
2022/06/15 08:00:05;;;;;;;1.52;0.80;;;;;;;13.00;69.00;101445.63;4971993;28;20046;-83
2022/06/15 08:02:34;;;;;;;2.55;0.75;;;;;;;12.98;68.62;101444.69;4974962;28;20086;-82
2022/06/15 08:05:04;;;;;;;4.22;0.82;;;;;;;12.92;68.60;101441.91;4968380;28;20058;-83
2022/06/15 08:07:32;;;;;;;2.47;0.80;;;;;;;12.87;69.19;101433.94;4974114;28;20496;-82
2022/06/15 08:10:01;;;;;;;2.30;0.77;;;;;;;12.85;68.77;101439.94;4971046;28;20460;-83
2022/06/15 08:12:30;;;;;;;1.60;0.88;;;;;;;12.84;69.25;101443.38;4970490;28;20054;-84
2022/06/15 08:15:01;;;;;;;2.67;1.02;;;;;;;12.83;69.64;101442.50;4966351;28;20039;-84
2022/06/15 08:17:33;;;;;;;3.13;0.88;;;;;;;12.82;70.15;101434.66;4961121;28;20043;-83
2022/06/15 08:20:10;;;;;;;4.63;1.00;;;;;;;12.78;69.87;101428.47;4969210;28;20047;-82
2022/06/15 08:22:41;;;;;;;1.15;0.77;;;;;;;12.74;70.58;101413.66;4955881;28;20055;-83
2022/06/15 08:25:13;;;;;;;3.22;0.90;;;;;;;12.72;70.57;101416.19;4958138;28;20497;-83
2022/06/15 08:27:41;;;;;;;3.30;0.90;;;;;;;12.72;70.72;101421.38;4966277;28;20113;-83
2022/06/15 08:30:12;;;;;;;1.38;0.75;;;;;;;12.70;71.66;101416.97;4971138;28;20061;-85
2022/06/15 08:32:41;;;;;;;3.45;0.80;;;;;;;12.67;72.40;101420.38;4961657;28;20497;-81
2022/06/15 08:35:12;;;;;;;4.32;1.08;;;;;;;12.66;72.66;101421.19;4967969;28;20047;-81
2022/06/15 08:37:41;;;;;;;1.02;0.70;;;;;;;12.63;73.37;101413.31;4966554;28;20062;-83
2022/06/15 08:40:11;;;;;;;1.00;0.50;;;;;;;12.61;73.45;101408.91;4970420;28;20391;-82
2022/06/15 08:42:49;;;;;;;2.25;1.05;;;;;;;12.58;73.74;101412.28;4960913;28;20183;-81
2022/06/15 08:45:26;;;;;;;2.25;1.05;;;;;;;12.56;74.49;101416.56;4975915;28;20488;-83
2022/06/15 08:48:08;;;;;;;1.35;0.68;;;;;;;12.53;74.39;101414.75;4977080;28;20046;-83
2022/06/15 08:50:44;;;;;;;3.35;0.55;;;;;;;12.51;75.04;101412.94;4960898;28;20050;-83
2022/06/15 08:53:18;;;;;;;1.17;0.63;;;;;;;12.48;74.39;101399.84;4970021;28;20090;-82
2022/06/15 08:55:51;;;;;;;1.77;0.70;;;;;;;12.44;74.22;101395.38;4970823;28;20097;-83
2022/06/15 08:58:26;;;;;;;2.72;0.60;;;;;;;12.42;74.55;101399.66;4970529;28;20137;-82
2022/06/15 09:01:03;;;;;;;1.50;0.60;;;;;;;12.41;74.61;101392.69;4965512;28;20504;-82
2022/06/15 09:03:38;;;;;;;3.25;1.13;;;;;;;12.39;74.27;101391.75;4977878;28;20129;-83
2022/06/15 09:06:21;;;;;;;1.85;0.65;;;;;;;12.36;74.09;101387.34;4966475;28;20051;-82
2022/06/15 09:09:10;;;;;;;0.98;0.60;;;;;;;12.35;73.83;101381.28;4967199;28;20058;-82
2022/06/15 09:12:49;;;;;;;1.17;0.52;;;;;;;12.34;74.57;101381.22;4960901;28;20059;-83
2022/06/15 09:14:50;;;;;;;2.22;0.70;;;;;;;12.34;75.59;101382.09;4969960;28;20050;-82
2022/06/15 09:17:23;;;;;;;2.08;0.68;;;;;;;12.33;76.13;101382.06;4957741;28;20051;-83
2022/06/15 09:19:56;;;;;;;2.78;0.98;;;;;;;12.29;76.20;101370.69;4970328;28;20105;-83
2022/06/15 09:22:30;;;;;;;4.03;0.77;;;;;;;12.33;75.66;101372.56;4971642;28;20587;-83
2022/06/15 09:25:04;;;;;;;2.13;1.00;;;;;;;12.35;75.80;101370.03;4951863;28;20042;-84
2022/06/15 09:27:36;;;;;;;3.60;0.98;;;;;;;12.34;76.83;101363.94;4971981;28;20062;-84
2022/06/15 09:30:10;;;;;;;1.70;0.55;;;;;;;12.35;77.95;101360.53;4968058;28;20042;-84
2022/06/15 09:32:42;;;;;;;5.88;1.17;;;;;;;12.34;76.84;101348.38;4964419;28;20051;-83
2022/06/15 09:35:16;;;;;;;1.50;0.88;;;;;;;12.35;76.37;101344.09;4968789;28;20162;-85
2022/06/15 09:37:53;;;;;;;2.33;0.65;;;;;;;12.32;76.82;101334.50;4968652;28;20052;-84
2022/06/15 09:40:22;;;;;;;2.85;0.60;;;;;;;12.33;76.00;101325.84;4968183;28;20488;-84
2022/06/15 09:43:01;;;;;;;0.75;0.60;;;;;;;12.34;76.06;101321.53;4965362;28;20055;-84
2022/06/15 09:45:35;;;;;;;1.17;0.63;;;;;;;12.34;75.79;101322.41;4970388;28;20047;-84
2022/06/15 09:48:12;;;;;;;0.80;0.60;;;;;;;12.34;75.52;101318.94;4960327;28;20053;-83
2022/06/15 09:50:45;;;;;;;1.40;0.65;;;;;;;12.34;74.88;101314.63;4964918;28;20043;-82
2022/06/15 09:53:34;;;;;;;1.02;0.70;;;;;;;12.36;73.64;101312.97;4964576;28;20097;-82
2022/06/15 09:56:06;;;;;;;1.05;0.70;;;;;;;12.38;73.50;101312.16;4971880;28;20133;-81
2022/06/15 09:58:40;;;;;;;1.10;0.60;;;;;;;12.40;73.02;101300.09;4970590;28;20054;-82
2022/06/15 10:01:09;;;;;;;1.20;0.50;;;;;;;12.41;73.71;101310.50;4966256;28;20058;-82
2022/06/15 10:03:41;;;;;;;1.70;0.70;;;;;;;12.42;73.78;101295.84;4972670;28;20059;-83
2022/06/15 10:06:19;;;;;;;1.50;0.60;;;;;;;12.43;73.24;101289.81;4959081;28;20044;-83
2022/06/15 10:08:50;;;;;;;4.05;0.98;;;;;;;12.42;74.65;101293.25;4969793;28;20058;-83
2022/06/15 10:11:29;;;;;;;1.60;0.80;;;;;;;12.39;74.94;101283.63;4975513;28;20058;-83
2022/06/15 10:13:58;;;;;;;4.47;1.15;;;;;;;12.34;74.80;101286.09;4969632;28;20046;-82
2022/06/15 10:16:33;;;;;;;3.17;0.88;;;;;;;12.38;74.44;101286.19;4965629;28;20042;-82
2022/06/15 10:19:09;;;;;;;2.33;0.77;;;;;;;12.39;73.89;101278.44;4962347;28;20050;-82
2022/06/15 10:21:39;;;;;;;0.95;0.82;;;;;;;12.42;74.46;101282.88;4966285;28;20122;-83
2022/06/15 10:24:22;;;;;;;1.55;0.95;;;;;;;12.43;75.56;101279.44;4961038;28;20058;-82
2022/06/15 10:26:53;;;;;;;2.05;0.90;;;;;;;12.42;75.60;101273.38;4971636;28;20063;-82
2022/06/15 10:29:32;;;;;;;2.70;1.25;;;;;;;12.46;75.73;101275.22;4970587;28;20050;-83
2022/06/15 10:32:18;;;;;;;1.15;0.68;;;;;;;12.46;75.20;101269.13;4968654;28;20078;-83
2022/06/15 10:34:58;;;;;;;1.27;0.90;;;;;;;12.46;75.02;101274.31;4970206;28;20058;-83
2022/06/15 10:37:33;;;;;;;1.95;0.93;;;;;;;12.42;73.69;101270.78;4967842;28;20511;-84
2022/06/15 10:40:18;;;;;;;3.25;1.35;;;;;;;12.38;73.89;101271.50;4969202;28;20043;-84
2022/06/15 10:42:53;;;;;;;2.42;0.93;;;;;;;12.31;74.14;101270.44;4959181;28;20051;-83
2022/06/15 10:45:26;;;;;;;1.67;0.70;;;;;;;12.25;73.56;101265.03;4966477;28;20623;-83
2022/06/15 10:47:58;;;;;;;5.78;1.05;;;;;;;12.21;73.63;101275.28;4959863;28;20608;-83
2022/06/15 10:50:29;;;;;;;3.53;0.73;;;;;;;12.21;73.75;101268.41;4963004;28;20047;-82
2022/06/15 10:53:01;;;;;;;5.00;0.70;;;;;;;12.24;73.56;101268.50;4966003;28;20062;-83
2022/06/15 11:04:15;;;;;;;;;;;;;;;12.18;74.17;101247.53;4963458;28;20102;-83
2022/06/15 11:06:49;;;;;;;2.13;0.70;;;;;;;12.21;74.54;101259.72;4964779;28;19929;-82
2022/06/15 11:09:24;;;;;;;2.30;0.77;;;;;;;12.21;73.67;101262.31;4962034;28;20042;-80
2022/06/15 11:11:56;;;;;;;1.38;0.63;;;;;;;12.21;73.83;101264.91;4968186;28;20055;-82
2022/06/15 11:14:28;;;;;;;3.90;0.90;;;;;;;12.18;74.01;101268.28;4972894;28;20046;-85
2022/06/15 11:20:05;;;;;;;2.78;0.73;;;;;;;12.19;77.18;101245.84;4972870;28;20461;-82
2022/06/15 11:22:35;;;;;;;1.48;0.82;;;;;;;12.19;76.59;101243.25;4970685;28;20137;-82
2022/06/15 11:25:11;;;;;;;2.22;0.70;;;;;;;12.17;76.30;101239.72;4973081;28;20050;-82
2022/06/15 11:27:46;;;;;;;1.85;0.77;;;;;;;12.12;75.75;101230.09;4972891;28;20055;-82
2022/06/15 11:30:25;;;;;;;3.55;1.17;;;;;;;12.09;78.10;101211.81;4974479;28;20057;-83
2022/06/15 11:33:01;;;;;;;1.77;0.80;;;;;;;12.04;78.84;101196.94;4964340;28;20047;-83
2022/06/15 11:35:36;;;;;;;1.92;0.70;;;;;;;12.02;80.29;101190.84;4974821;28;20451;-82
2022/06/15 11:38:14;;;;;;;1.40;0.90;;;;;;;12.01;79.45;101202.94;4969308;28;20042;-82
2022/06/15 11:40:47;;;;;;;7.93;0.95;;;;;;;12.01;79.70;101208.13;4966256;28;20219;-82
2022/06/15 11:43:20;;;;;;;1.63;1.15;;;;;;;12.02;79.37;101196.03;4970603;28;20529;-82
2022/06/15 11:46:18;;;;;;;0.60;0.60;;;;;;;11.99;78.66;101188.16;4971817;28;20091;-82
2022/06/15 11:48:59;;;;;;;2.25;1.00;;;;;;;11.97;78.37;101189.81;4961327;28;20058;-82
2022/06/15 11:51:39;;;;;;;2.20;0.80;;;;;;;11.91;77.44;101183.63;4963332;28;20046;-83
2022/06/15 11:54:23;;;;;;;2.55;1.02;;;;;;;11.80;76.97;101177.19;4961151;28;20047;-83
2022/06/15 11:57:01;;;;;;;3.15;0.90;;;;;;;11.74;78.03;101177.84;4968093;28;20508;-83
2022/06/15 11:59:41;;;;;;;2.33;0.77;;;;;;;11.77;78.52;101183.97;4963230;28;20058;-82
2022/06/15 12:02:25;;;;;;;3.85;0.90;;;;;;;11.79;77.80;101201.34;4963854;28;20611;-82
2022/06/15 12:05:16;;;;;;;1.02;0.63;;;;;;;11.79;78.61;101205.66;4967448;28;20055;-83
2022/06/15 12:07:59;;;;;;;2.00;0.73;;;;;;;11.79;78.80;101201.34;4972386;28;20051;-83
2022/06/15 12:10:41;;;;;;;5.72;0.85;;;;;;;11.74;79.78;101202.91;4972110;28;20054;-83
2022/06/15 12:13:21;;;;;;;3.90;0.65;;;;;;;11.73;82.29;101206.34;4964315;28;20102;-82